KBRO/BRO METAR and TAF weather

Enter ICAO airport designator
Station Type Date Time Source
KBRO METAR 2019/04/22 23:53 UTC NOAA

KBRO 222353Z 14011KT 10SM FEW023 BKN032 BKN039 26/21 A2993 RMK AO2 SLP134 T02610211 10294 20261 56003


Station Type Date Time Source
KBRO Decoded METAR 2019/04/22 23:53 UTC NOAA

BROWNSVILLE/SOUTH PADRE IS, TX, United States (KBRO) 25-54N 97-25W 5M
Apr 22, 2019 - 07:53 PM EDT / 2019.04.22 2353 UTC
Wind: from the SE (140 degrees) at 13 MPH (11 KT):0
Visibility: 10 mile(s):0
Sky conditions: mostly cloudy
Temperature: 79.0 F (26.1 C)
Dew Point: 70.0 F (21.1 C)
Relative Humidity: 73%
Pressure (altimeter): 29.93 in. Hg (1013 hPa)
Pressure tendency: 0.01 inches (0.3 hPa) lower than three hours ago
ob: KBRO 222353Z 14011KT 10SM FEW023 BKN032 BKN039 26/21 A2993 RMK AO2 SLP134 T02610211 10294 20261 56003
cycle: 0

Station Type Date Time Source
KBRO TAF 2019/04/22 22:21 UTC NOAA

TAF
AMD KBRO 222218Z 2222/2318 13017G23KT P6SM SCT030
FM230000 14012KT P6SM BKN025
FM231500 14018G26KT P6SM BKN040

Example: see airport list